createdAt,value
2022-10-19T00:01:32.866Z,100993.78
2022-10-19T00:04:03.533Z,100993.86
2022-10-19T00:06:36.286Z,100992.73
2022-10-19T00:09:07.171Z,100988.52
2022-10-19T00:11:38.840Z,100986.61
2022-10-19T00:14:08.881Z,100986.19
2022-10-19T00:16:39.127Z,100984.83
2022-10-19T00:19:11.187Z,100987.64
2022-10-19T00:21:40.501Z,100985.01
2022-10-19T00:24:09.679Z,100987.10
2022-10-19T00:26:38.548Z,100986.31
2022-10-19T00:29:07.985Z,100984.08
2022-10-19T00:31:36.678Z,100981.00
2022-10-19T00:34:04.997Z,100980.40
2022-10-19T00:36:36.551Z,100988.17
2022-10-19T00:39:07.254Z,100981.91
2022-10-19T00:41:37.542Z,100983.56
2022-10-19T00:44:26.768Z,100987.44
2022-10-19T00:47:01.809Z,100985.11
2022-10-19T00:49:38.952Z,100983.65
2022-10-19T00:52:11.239Z,100979.81
2022-10-19T00:54:41.891Z,100984.38
2022-10-19T00:57:12.107Z,100986.75
2022-10-19T00:59:42.377Z,100984.13
2022-10-19T01:02:10.874Z,100984.73
2022-10-19T01:04:44.453Z,100978.50
2022-10-19T01:07:13.616Z,100977.08
2022-10-19T01:09:41.827Z,100976.75
2022-10-19T01:12:30.889Z,100975.73
2022-10-19T01:15:19.718Z,100973.20
2022-10-19T01:17:55.058Z,100966.72
2022-10-19T01:21:09.038Z,100957.94
2022-10-19T01:24:07.152Z,100960.89
2022-10-19T01:27:06.730Z,100953.19
2022-10-19T01:29:56.481Z,100962.55
2022-10-19T01:32:34.827Z,100960.25
2022-10-19T01:35:10.726Z,100956.01
2022-10-19T01:37:47.566Z,100952.73
2022-10-19T01:40:25.549Z,100948.25
2022-10-19T01:43:05.591Z,100944.23
2022-10-19T01:45:43.379Z,100944.45
2022-10-19T01:48:17.091Z,100939.21
2022-10-19T01:50:51.299Z,100942.27
2022-10-19T01:53:21.458Z,100939.83
2022-10-19T01:55:53.132Z,100936.73
2022-10-19T01:58:27.534Z,100935.27
2022-10-19T02:01:02.222Z,100936.17
2022-10-19T02:03:33.826Z,100931.70
2022-10-19T02:06:07.356Z,100926.36
2022-10-19T02:08:40.581Z,100926.25
2022-10-19T02:11:11.391Z,100922.60
2022-10-19T02:13:42.613Z,100925.30
2022-10-19T02:16:16.586Z,100921.37
2022-10-19T02:18:48.785Z,100920.64
2022-10-19T02:21:19.587Z,100919.52
2022-10-19T02:23:49.362Z,100919.87
2022-10-19T02:26:24.939Z,100917.55
2022-10-19T02:28:57.713Z,100918.22
2022-10-19T02:31:27.280Z,100915.77
2022-10-19T02:33:55.804Z,100912.16
2022-10-19T02:36:26.687Z,100912.55
2022-10-19T02:38:55.573Z,100909.77
2022-10-19T02:41:31.025Z,100906.43
2022-10-19T02:46:49.697Z,100908.40
2022-10-19T02:49:19.835Z,100904.63
2022-10-19T02:52:00.135Z,100906.45
2022-10-19T02:54:32.426Z,100904.89
2022-10-19T02:57:02.338Z,100910.60
2022-10-19T02:59:34.054Z,100909.04
2022-10-19T03:02:02.814Z,100910.16
2022-10-19T03:04:31.760Z,100904.59
2022-10-19T03:07:00.549Z,100901.31
2022-10-19T03:09:29.167Z,100901.54
2022-10-19T03:12:01.291Z,100896.40
2022-10-19T03:14:38.966Z,100892.60
2022-10-19T03:17:07.577Z,100895.91
2022-10-19T03:19:36.211Z,100892.69
2022-10-19T03:22:04.907Z,100899.15
2022-10-19T03:24:33.742Z,100896.11
2022-10-19T03:27:01.974Z,100896.77
2022-10-19T03:29:30.419Z,100893.83
2022-10-19T03:31:58.820Z,100888.41
2022-10-19T03:34:29.320Z,100889.55
2022-10-19T03:36:58.715Z,100887.12
2022-10-19T03:39:27.832Z,100888.71
2022-10-19T03:41:56.097Z,100885.92
2022-10-19T03:44:24.472Z,100886.59
2022-10-19T03:47:06.043Z,100885.55
2022-10-19T03:49:36.761Z,100884.48
2022-10-19T03:52:09.633Z,100885.91
2022-10-19T03:54:38.261Z,100880.19
2022-10-19T03:57:06.813Z,100879.98
2022-10-19T03:59:35.178Z,100874.92
2022-10-19T04:02:07.059Z,100876.52
2022-10-19T04:04:36.225Z,100876.84
2022-10-19T04:07:05.826Z,100879.24
2022-10-19T04:09:34.067Z,100882.18
2022-10-19T04:12:04.168Z,100878.88
2022-10-19T04:14:39.386Z,100880.64
2022-10-19T04:17:23.703Z,100880.48
2022-10-19T04:19:52.119Z,100874.86
2022-10-19T04:22:23.108Z,100873.42
2022-10-19T04:24:51.350Z,100874.46
2022-10-19T04:27:21.298Z,100874.34
2022-10-19T04:29:51.021Z,100872.98
2022-10-19T04:32:30.941Z,100872.13
2022-10-19T04:35:08.583Z,100867.23
2022-10-19T04:40:35.823Z,100867.43
2022-10-19T04:43:05.477Z,100860.71
2022-10-19T04:45:35.911Z,100863.31
2022-10-19T04:48:05.151Z,100862.33
2022-10-19T04:50:33.868Z,100859.98
2022-10-19T04:53:02.183Z,100854.23
2022-10-19T04:55:30.494Z,100855.49
2022-10-19T04:58:02.211Z,100853.88
2022-10-19T05:00:32.709Z,100851.70
2022-10-19T05:03:01.472Z,100846.30
2022-10-19T05:05:31.461Z,100844.27
2022-10-19T05:08:05.598Z,100845.83
2022-10-19T05:10:34.255Z,100838.80
2022-10-19T05:13:03.275Z,100841.64
2022-10-19T05:15:31.833Z,100844.48
2022-10-19T05:18:00.422Z,100845.47
2022-10-19T05:20:31.085Z,100844.06
2022-10-19T05:23:03.263Z,100843.98
2022-10-19T05:25:35.092Z,100846.86
2022-10-19T05:28:04.668Z,100849.44
2022-10-19T05:30:32.837Z,100853.15
2022-10-19T05:33:05.104Z,100854.33
2022-10-19T05:35:33.572Z,100854.59
2022-10-19T05:38:01.922Z,100851.79
2022-10-19T05:40:36.933Z,100854.66
2022-10-19T05:43:05.665Z,100853.75
2022-10-19T05:45:34.132Z,100855.33
2022-10-19T05:48:05.256Z,100852.20
2022-10-19T05:50:36.175Z,100851.48
2022-10-19T05:53:04.399Z,100854.86
2022-10-19T05:55:35.744Z,100853.70
2022-10-19T05:58:04.233Z,100849.10
2022-10-19T06:00:32.515Z,100852.50
2022-10-19T06:03:00.824Z,100850.27
2022-10-19T06:05:29.976Z,100853.33
2022-10-19T06:07:58.488Z,100853.27
2022-10-19T06:10:27.028Z,100856.30
2022-10-19T06:12:58.092Z,100853.77
2022-10-19T06:15:26.355Z,100851.30
2022-10-19T06:17:58.662Z,100854.58
2022-10-19T06:20:29.000Z,100855.70
2022-10-19T06:22:57.689Z,100857.67
2022-10-19T06:25:26.075Z,100855.04
2022-10-19T06:27:58.224Z,100851.73
2022-10-19T06:30:26.887Z,100853.76
2022-10-19T06:32:58.182Z,100854.12
2022-10-19T06:35:27.035Z,100855.08
2022-10-19T06:37:58.118Z,100862.02
2022-10-19T06:40:26.642Z,100861.98
2022-10-19T06:42:58.301Z,100859.02
2022-10-19T06:45:26.988Z,100861.26
2022-10-19T06:47:55.469Z,100861.65
2022-10-19T06:50:25.121Z,100858.95
2022-10-19T06:52:55.499Z,100858.83
2022-10-19T06:55:27.631Z,100854.92
2022-10-19T06:57:55.964Z,100849.42
2022-10-19T07:00:29.103Z,100848.02
2022-10-19T07:03:01.982Z,100849.23
2022-10-19T07:05:30.506Z,100853.06
2022-10-19T07:07:58.868Z,100853.45
2022-10-19T07:10:28.951Z,100858.14
2022-10-19T07:13:02.603Z,100858.46
2022-10-19T07:15:42.774Z,100861.08
2022-10-19T07:18:11.656Z,100855.56
2022-10-19T07:20:42.596Z,100857.11
2022-10-19T07:23:13.685Z,100858.70
2022-10-19T07:25:42.215Z,100857.39
2022-10-19T07:28:10.543Z,100856.16
2022-10-19T07:30:39.429Z,100859.61
2022-10-19T07:33:07.947Z,100859.81
2022-10-19T07:35:36.857Z,100861.83
2022-10-19T07:38:05.174Z,100861.29
2022-10-19T07:40:35.215Z,100860.95
2022-10-19T07:43:06.817Z,100860.55
2022-10-19T07:45:35.540Z,100869.06
2022-10-19T07:48:04.309Z,100871.54
2022-10-19T07:50:32.660Z,100869.78
2022-10-19T07:53:02.887Z,100869.45
2022-10-19T07:55:34.240Z,100868.38
2022-10-19T07:58:02.716Z,100862.16
2022-10-19T08:00:31.194Z,100862.63
2022-10-19T08:03:43.171Z,100873.67
2022-10-19T08:05:49.349Z,100872.92
2022-10-19T08:08:17.683Z,100874.41
2022-10-19T08:10:46.017Z,100875.60
2022-10-19T08:13:14.709Z,100868.19
2022-10-19T08:15:43.197Z,100874.61
2022-10-19T08:18:11.412Z,100870.42
2022-10-19T08:20:42.203Z,100873.11
2022-10-19T08:23:11.061Z,100870.34
2022-10-19T08:25:39.495Z,100872.52
2022-10-19T08:28:07.869Z,100874.56
2022-10-19T08:30:39.219Z,100873.77
2022-10-19T08:33:07.734Z,100873.95
2022-10-19T08:35:36.899Z,100870.77
2022-10-19T08:38:05.093Z,100872.95
2022-10-19T08:40:33.339Z,100867.95
2022-10-19T08:43:12.247Z,100867.83
2022-10-19T08:45:43.103Z,100865.79
2022-10-19T08:48:28.442Z,100867.92
2022-10-19T08:51:03.686Z,100870.73
2022-10-19T08:53:40.243Z,100866.13
2022-10-19T08:56:38.802Z,100871.26
2022-10-19T08:59:24.373Z,100871.80
2022-10-19T09:01:58.199Z,100872.07
2022-10-19T09:04:33.743Z,100878.36
2022-10-19T09:07:26.759Z,100882.48
2022-10-19T09:09:59.629Z,100885.08
2022-10-19T09:12:47.082Z,100881.94
2022-10-19T09:15:18.788Z,100885.86
2022-10-19T09:17:49.671Z,100888.78
2022-10-19T09:20:24.144Z,100889.79
2022-10-19T09:23:02.237Z,100890.14
2022-10-19T09:25:33.711Z,100887.74
2022-10-19T09:28:14.714Z,100887.95
2022-10-19T09:30:45.725Z,100888.27
2022-10-19T09:33:24.002Z,100890.98
2022-10-19T09:35:54.113Z,100888.83
2022-10-19T09:38:27.263Z,100896.27
2022-10-19T09:40:57.733Z,100896.30
2022-10-19T09:43:27.878Z,100899.73
2022-10-19T09:46:09.636Z,100899.01
2022-10-19T09:48:49.930Z,100904.75
2022-10-19T09:51:19.422Z,100906.72
2022-10-19T09:53:51.665Z,100908.48
2022-10-19T09:56:26.366Z,100908.39
2022-10-19T09:58:56.823Z,100911.01
2022-10-19T10:01:43.489Z,100911.55
2022-10-19T10:04:16.409Z,100911.80
2022-10-19T10:06:47.145Z,100911.46
2022-10-19T10:09:18.346Z,100912.30
2022-10-19T10:11:52.147Z,100917.98
2022-10-19T10:14:24.628Z,100922.48
2022-10-19T10:16:57.140Z,100929.59
2022-10-19T10:19:29.314Z,100944.02
2022-10-19T10:21:59.544Z,100957.29
2022-10-19T10:24:31.498Z,100962.30
2022-10-19T10:27:02.163Z,100960.29
2022-10-19T10:29:33.110Z,100961.29
2022-10-19T10:32:05.540Z,100960.52
2022-10-19T10:34:49.803Z,100959.69
2022-10-19T10:37:25.015Z,100954.79
2022-10-19T10:39:57.907Z,100953.51
2022-10-19T10:42:34.819Z,100952.83
2022-10-19T10:45:16.155Z,100955.63
2022-10-19T10:47:51.810Z,100957.08
2022-10-19T10:50:26.708Z,100951.77
2022-10-19T10:53:00.531Z,100952.17
2022-10-19T10:55:30.386Z,100956.16
2022-10-19T10:58:14.023Z,100961.86
2022-10-19T11:00:43.877Z,100963.37
2022-10-19T11:03:19.966Z,100953.89
2022-10-19T11:05:54.340Z,100954.60
2022-10-19T11:08:28.224Z,100958.19
2022-10-19T11:11:04.322Z,100954.52
2022-10-19T11:13:38.756Z,100952.23
2022-10-19T11:16:14.815Z,100947.46
2022-10-19T11:18:47.118Z,100949.32
2022-10-19T11:21:24.226Z,100947.30
2022-10-19T11:24:07.292Z,100946.75
2022-10-19T11:26:50.073Z,100949.45
2022-10-19T11:29:33.450Z,100948.66
2022-10-19T11:32:02.650Z,100944.17
2022-10-19T11:34:55.669Z,100945.92
2022-10-19T11:38:00.414Z,100944.35
2022-10-19T11:40:54.290Z,100944.66
2022-10-19T11:43:42.118Z,100945.01
2022-10-19T11:46:17.172Z,100944.16
2022-10-19T11:49:05.535Z,100941.75
2022-10-19T11:51:46.399Z,100940.55
2022-10-19T11:54:28.619Z,100937.18
2022-10-19T11:57:07.264Z,100934.65
2022-10-19T12:00:14.015Z,100939.84
2022-10-19T12:03:11.716Z,100945.45
2022-10-19T12:05:51.816Z,100944.59
2022-10-19T12:08:45.716Z,100941.60
2022-10-19T12:11:27.366Z,100942.52
2022-10-19T12:14:00.352Z,100943.77
2022-10-19T12:16:42.234Z,100945.58
2022-10-19T12:19:20.284Z,100954.07
2022-10-19T12:21:50.717Z,100951.94
2022-10-19T12:24:31.178Z,100950.91
2022-10-19T12:27:00.803Z,100953.63
2022-10-19T12:29:35.726Z,100960.26
2022-10-19T12:32:06.905Z,100960.50
2022-10-19T12:34:52.336Z,100962.03
2022-10-19T12:37:32.402Z,100962.42
2022-10-19T12:40:08.207Z,100963.30
2022-10-19T12:42:51.071Z,100961.48
2022-10-19T12:45:31.724Z,100959.12
2022-10-19T12:48:20.421Z,100956.09
2022-10-19T12:51:11.868Z,100955.52
2022-10-19T12:53:42.713Z,100959.05
2022-10-19T12:56:17.363Z,100960.29
2022-10-19T12:58:54.808Z,100961.07
2022-10-19T13:01:43.774Z,100961.60
2022-10-19T13:04:18.358Z,100964.98
2022-10-19T13:06:51.819Z,100965.89
2022-10-19T13:09:29.204Z,100970.52
2022-10-19T13:12:27.379Z,100969.81
2022-10-19T13:14:57.152Z,100961.94
2022-10-19T13:17:45.120Z,100963.05
2022-10-19T13:20:51.968Z,100966.63
2022-10-19T13:23:41.534Z,100967.58
2022-10-19T13:26:39.887Z,100969.88
2022-10-19T13:29:28.737Z,100967.38
2022-10-19T13:32:42.728Z,100965.27
2022-10-19T13:35:35.083Z,100972.09
2022-10-19T13:38:27.647Z,100974.20
2022-10-19T13:41:11.007Z,100980.52
2022-10-19T13:43:50.952Z,100978.63
2022-10-19T13:46:42.112Z,100983.36
2022-10-19T13:49:40.907Z,100994.31
2022-10-19T13:52:31.872Z,100991.04
2022-10-19T13:55:24.303Z,100996.14
2022-10-19T13:58:18.928Z,101002.52
2022-10-19T14:01:04.892Z,101008.48
2022-10-19T14:04:03.389Z,101010.76
2022-10-19T14:06:40.124Z,101012.23
2022-10-19T14:09:31.510Z,101015.08
2022-10-19T14:12:06.802Z,101010.84
2022-10-19T14:14:44.315Z,101012.80
2022-10-19T14:19:48.634Z,101025.53
2022-10-19T14:22:29.403Z,101031.29
2022-10-19T14:25:07.526Z,101042.83
2022-10-19T14:27:38.291Z,101042.41
2022-10-19T14:30:23.622Z,101045.90
2022-10-19T14:32:55.727Z,101045.53
2022-10-19T14:35:36.576Z,101055.45
2022-10-19T14:38:09.094Z,101063.23
2022-10-19T14:40:42.778Z,101070.02
2022-10-19T14:43:25.832Z,101071.55
2022-10-19T14:46:13.470Z,101069.39
2022-10-19T14:48:46.486Z,101071.07
2022-10-19T14:51:33.288Z,101075.72
2022-10-19T14:54:05.905Z,101081.61
2022-10-19T14:56:43.501Z,101081.63
2022-10-19T14:59:24.397Z,101086.04
2022-10-19T15:02:00.157Z,101086.23
2022-10-19T15:04:33.383Z,101102.85
2022-10-19T15:07:04.906Z,101099.20
2022-10-19T15:09:47.681Z,101105.25
2022-10-19T15:12:19.326Z,101102.36
2022-10-19T15:14:49.258Z,101104.88
2022-10-19T15:17:28.579Z,101107.89
2022-10-19T15:20:00.645Z,101115.55
2022-10-19T15:22:42.285Z,101117.42
2022-10-19T15:25:33.701Z,101113.77
2022-10-19T15:28:20.174Z,101117.67
2022-10-19T15:31:02.687Z,101123.89
2022-10-19T15:33:39.765Z,101126.23
2022-10-19T15:36:16.571Z,101125.41
2022-10-19T15:38:47.088Z,101127.30
2022-10-19T15:41:30.508Z,101128.06
2022-10-19T15:44:03.462Z,101135.35
2022-10-19T15:46:56.789Z,101138.38
2022-10-19T15:49:58.978Z,101143.48
2022-10-19T15:52:29.761Z,101148.23
2022-10-19T15:54:59.649Z,101152.91
2022-10-19T15:57:31.754Z,101155.41
2022-10-19T16:00:02.620Z,101159.52
2022-10-19T16:02:32.861Z,101167.18
2022-10-19T16:07:44.022Z,101175.50
2022-10-19T16:10:17.470Z,101179.08
2022-10-19T16:12:48.003Z,101180.19
2022-10-19T16:15:27.337Z,101185.54
2022-10-19T16:18:02.934Z,101192.33
2022-10-19T16:20:31.572Z,101196.02
2022-10-19T16:23:02.106Z,101199.22
2022-10-19T16:25:32.425Z,101198.38
2022-10-19T16:28:01.433Z,101203.67
2022-10-19T16:30:29.972Z,101204.64
2022-10-19T16:32:58.520Z,101206.31
2022-10-19T16:35:27.789Z,101207.83
2022-10-19T16:37:56.347Z,101208.88
2022-10-19T16:40:26.338Z,101212.39
2022-10-19T16:42:58.196Z,101213.74
2022-10-19T16:45:26.891Z,101217.58
2022-10-19T16:47:56.181Z,101219.73
2022-10-19T16:50:25.660Z,101226.80
2022-10-19T16:53:05.642Z,101226.20
2022-10-19T16:55:35.931Z,101232.66
2022-10-19T16:58:04.509Z,101235.66
2022-10-19T17:00:35.857Z,101237.17
2022-10-19T17:03:04.845Z,101241.16
2022-10-19T17:05:38.249Z,101242.64
2022-10-19T17:08:07.759Z,101245.69
2022-10-19T17:10:36.426Z,101258.23
2022-10-19T17:13:05.127Z,101264.02
2022-10-19T17:15:42.982Z,101265.13
2022-10-19T17:18:12.091Z,101268.27
2022-10-19T17:20:41.665Z,101267.84
2022-10-19T17:23:10.583Z,101272.88
2022-10-19T17:25:47.512Z,101275.65
2022-10-19T17:28:16.237Z,101280.52
2022-10-19T17:30:47.133Z,101280.14
2022-10-19T17:33:15.624Z,101280.23
2022-10-19T17:35:44.224Z,101285.27
2022-10-19T17:38:12.785Z,101287.79
2022-10-19T17:40:43.078Z,101294.20
2022-10-19T17:43:12.139Z,101299.52
2022-10-19T17:45:45.194Z,101300.70
2022-10-19T17:48:13.979Z,101298.02
2022-10-19T17:50:45.146Z,101301.56
2022-10-19T17:53:13.426Z,101302.62
2022-10-19T17:55:42.408Z,101307.61
2022-10-19T17:58:11.131Z,101309.88
2022-10-19T18:00:41.718Z,101313.91
2022-10-19T18:03:10.824Z,101315.77
2022-10-19T18:05:40.286Z,101314.39
2022-10-19T18:08:08.729Z,101316.59
2022-10-19T18:10:37.498Z,101315.77
2022-10-19T18:13:06.066Z,101315.39
2022-10-19T18:15:34.620Z,101315.70
2022-10-19T18:18:04.188Z,101323.08
2022-10-19T18:20:32.993Z,101323.73
2022-10-19T18:23:01.279Z,101323.48
2022-10-19T18:25:42.549Z,101325.25
2022-10-19T18:28:18.892Z,101322.08
2022-10-19T18:30:47.486Z,101318.19
2022-10-19T18:33:18.891Z,101317.42
2022-10-19T18:35:47.490Z,101318.68
2022-10-19T18:38:15.745Z,101318.77
2022-10-19T18:40:43.978Z,101320.96
2022-10-19T18:43:12.555Z,101325.05
2022-10-19T18:45:50.195Z,101334.02
2022-10-19T18:48:18.654Z,101335.79
2022-10-19T18:50:47.213Z,101340.20
2022-10-19T18:53:16.709Z,101341.73
2022-10-19T18:55:45.619Z,101341.48
2022-10-19T18:58:14.224Z,101340.27
2022-10-19T19:00:45.837Z,101338.13
2022-10-19T19:03:14.455Z,101335.58
2022-10-19T19:05:43.093Z,101338.19
2022-10-19T19:08:11.480Z,101344.19
2022-10-19T19:10:39.850Z,101345.20
2022-10-19T19:13:08.253Z,101349.66
2022-10-19T19:15:36.813Z,101354.45
2022-10-19T19:18:05.382Z,101357.48
2022-10-19T19:20:34.268Z,101361.87
2022-10-19T19:23:03.004Z,101366.94
2022-10-19T19:25:31.802Z,101369.20
2022-10-19T19:28:00.124Z,101366.42
2022-10-19T19:30:28.704Z,101374.44
2022-10-19T19:32:57.685Z,101375.86
2022-10-19T19:35:26.947Z,101376.58
2022-10-19T19:37:55.405Z,101381.94
2022-10-19T19:40:24.806Z,101387.13
2022-10-19T19:42:53.103Z,101391.85
2022-10-19T19:45:21.521Z,101395.48
2022-10-19T19:47:49.888Z,101399.05
2022-10-19T19:50:18.450Z,101404.13
2022-10-19T19:52:48.092Z,101408.52
2022-10-19T19:55:16.658Z,101413.41
2022-10-19T19:57:48.000Z,101415.84
2022-10-19T20:00:16.870Z,101417.54
2022-10-19T20:02:45.139Z,101421.67
2022-10-19T20:05:13.448Z,101421.27
2022-10-19T20:07:42.141Z,101419.59
2022-10-19T20:10:10.710Z,101423.58
2022-10-19T20:12:39.551Z,101428.11
2022-10-19T20:15:10.310Z,101431.52
2022-10-19T20:17:39.458Z,101431.51
2022-10-19T20:20:10.970Z,101434.21
2022-10-19T20:22:40.219Z,101435.52
2022-10-19T20:25:09.666Z,101435.83
2022-10-19T20:27:38.356Z,101438.00
2022-10-19T20:30:09.845Z,101440.20
2022-10-19T20:32:38.825Z,101445.40
2022-10-19T20:35:08.645Z,101451.52
2022-10-19T20:37:37.125Z,101457.84
2022-10-19T20:40:08.943Z,101456.60
2022-10-19T20:42:37.891Z,101459.98
2022-10-19T20:45:08.673Z,101457.48
2022-10-19T20:47:37.435Z,101462.73
2022-10-19T20:50:07.812Z,101461.95
2022-10-19T20:52:36.570Z,101463.09
2022-10-19T20:55:07.226Z,101465.88
2022-10-19T20:57:35.442Z,101469.40
2022-10-19T21:00:05.195Z,101466.69
2022-10-19T21:02:33.997Z,101468.98
2022-10-19T21:05:02.685Z,101469.99
2022-10-19T21:07:30.995Z,101474.25
2022-10-19T21:09:59.366Z,101476.63
2022-10-19T21:12:28.262Z,101480.31
2022-10-19T21:14:56.589Z,101481.94
2022-10-19T21:17:26.139Z,101481.91
2022-10-19T21:19:58.385Z,101481.39
2022-10-19T21:22:28.292Z,101482.11
2022-10-19T21:24:56.745Z,101484.45
2022-10-19T21:27:28.988Z,101486.44
2022-10-19T21:29:57.420Z,101489.31
2022-10-19T21:32:32.334Z,101487.71
2022-10-19T21:35:01.370Z,101486.27
2022-10-19T21:37:30.474Z,101489.45
2022-10-19T21:39:58.931Z,101485.29
2022-10-19T21:42:28.467Z,101480.17
2022-10-19T21:45:01.393Z,101481.41
2022-10-19T21:47:45.462Z,101484.85
2022-10-19T21:50:16.808Z,101487.56
2022-10-19T21:52:45.062Z,101489.68
2022-10-19T21:55:13.423Z,101487.45
2022-10-19T21:57:42.224Z,101485.63
2022-10-19T22:00:13.194Z,101484.08
2022-10-19T22:02:41.645Z,101485.48
2022-10-19T22:05:10.222Z,101483.25
2022-10-19T22:07:38.526Z,101482.23
2022-10-19T22:10:10.101Z,101486.73
2022-10-19T22:12:39.077Z,101485.66
2022-10-19T22:15:11.003Z,101487.45
2022-10-19T22:17:39.331Z,101483.34
2022-10-19T22:20:10.734Z,101487.95
2022-10-19T22:22:39.073Z,101489.77
2022-10-19T22:25:08.718Z,101490.88
2022-10-19T22:27:37.017Z,101490.47
2022-10-19T22:30:09.184Z,101491.17
2022-10-19T22:32:38.044Z,101498.64
2022-10-19T22:35:07.546Z,101501.80
2022-10-19T22:37:35.838Z,101501.61
2022-10-19T22:40:05.510Z,101504.05
2022-10-19T22:43:10.792Z,101499.02
2022-10-19T22:45:40.006Z,101504.72
2022-10-19T22:48:08.584Z,101505.05
2022-10-19T22:50:37.803Z,101505.85
2022-10-19T22:53:06.374Z,101510.65
2022-10-19T22:55:35.197Z,101512.45
2022-10-19T22:58:05.338Z,101516.08
2022-10-19T23:00:34.005Z,101513.98
2022-10-19T23:03:03.171Z,101510.75
2022-10-19T23:05:31.868Z,101511.52
2022-10-19T23:08:00.481Z,101514.05
2022-10-19T23:10:29.450Z,101516.77
2022-10-19T23:12:58.015Z,101522.02
2022-10-19T23:15:27.178Z,101529.67
2022-10-19T23:17:55.877Z,101531.23
2022-10-19T23:20:25.547Z,101533.88
2022-10-19T23:22:53.837Z,101534.43
2022-10-19T23:25:22.687Z,101533.83
2022-10-19T23:27:53.349Z,101536.90
2022-10-19T23:30:22.308Z,101534.13
2022-10-19T23:32:53.081Z,101539.02
2022-10-19T23:35:21.490Z,101544.70
2022-10-19T23:37:50.216Z,101545.54
2022-10-19T23:40:18.779Z,101548.40
2022-10-19T23:42:47.122Z,101556.48
2022-10-19T23:45:15.655Z,101559.19
2022-10-19T23:47:44.203Z,101558.02
2022-10-19T23:50:12.716Z,101564.40
2022-10-19T23:52:41.295Z,101565.58
2022-10-19T23:55:10.788Z,101567.20
2022-10-19T23:57:39.123Z,101569.02
